メインページ
METAR-TAF:

METAR-TAF

空港 :

岩国, 日本

岩国飛行場

緯度: 34-08N, 経度: 132-14E, 海抜: 2m

現時点の気象観測

当レポートは49分前の22:55(UTC)に作成
西/北西の風 5kt
気温 4°C
湿度 75%
気圧 1024 hPa
視程10km以上
高度3000ftの雲はほとんどない
高度14000ftの千切れ雲あり
高度20000ftの千切れ雲あり

METAR: RJOI 182255Z 30005KT 9999 FEW030 BKN140 BKN200 04/00 A3023 RMK SLP235 T00390000

時間: 08:44 (23:44 UTC)

予報

予報は18日の 21時(UTC)から 19日の 21時(UTC)まで有効
変向風 5kt
視程10km以上
高度10000ftの雲は散在している
高度20000ftの千切れ雲あり
19日の 05時(UTC)から 19日の 08時(UTC)まで一時的に
視程: 9000m
高度1200ftの雲は散在している
高度4000ftの千切れ雲あり
高度12000ftの千切れ雲あり
弱いにわか雨
19日の 10時(UTC)から 19日の 12時(UTC)まで徐々に
変向風 5kt
視程10km以上
高度4000ftの雲はほとんどない
高度20000ftの雲はほとんどない

TAF: RJOI 1821/1921 VRB05KT 9999 SCT100 BKN200 QNH3016INS TEMPO 1905/1908 9000 -SHRA SCT012 BKN040 BKN120 BECMG 1910/1912 VRB05KT 9999 NSW FEW040 FEW200 QNH3012INS T07/1906Z T03/1918Z

4,000以上の空港の気象観測と天気予報(METAR報とTAF報)

利用可能な観測所は地図上に黄色い丸と赤い丸で示す。

丸の上にカーソルを重ねると観測所名を参照できる。

次にクリックすると気象観測と天気予報を参照できる。

マップの切り替え:黒色「×」印の緑ボタンをクリックして拡大、「-」印の緑ボタンをクリックして縮小、緑色の三角印をクリックして隣りの地図に切り替え


METAR-TAF: